Time;durP1;ratioP1;P1;durP2;ratioP2;P2;SDS_P1;SDS_P2;PMS_P1;PMS_P2;Temp;Humidity;BMP_temperature;BMP_pressure;BME280_temperature;BME280_humidity;BME280_pressure;Samples;Min_cycle;Max_cycle;Signal;HPM_P1;HPM_P2
2021/11/01 00:00:51;;;;;;;;;;;;;;;9.08;76.43;98805.87;1723587;82;20949;-70
2021/11/01 00:03:18;;;;;;;15.70;10.78;;;;;;;9.12;76.15;98800.85;1715679;82;20159;-70
2021/11/01 00:05:46;;;;;;;11.12;9.70;;;;;;;9.13;75.97;98796.04;1714584;82;21672;-70
2021/11/01 00:08:12;;;;;;;13.72;9.93;;;;;;;9.16;76.07;98790.66;1720773;82;21618;-70
2021/11/01 00:10:40;;;;;;;14.68;9.90;;;;;;;9.18;75.94;98790.08;1715083;82;21034;-70
2021/11/01 00:13:06;;;;;;;12.70;9.75;;;;;;;9.17;75.77;98787.11;1672214;85;20947;-70
2021/11/01 00:15:33;;;;;;;11.65;9.43;;;;;;;9.18;75.54;98778.36;1662576;85;20949;-70
2021/11/01 00:18:00;;;;;;;15.33;10.50;;;;;;;9.21;75.57;98781.26;1720673;82;21120;-70
2021/11/01 00:20:27;;;;;;;;;;;;;;;9.18;75.40;98772.32;1716073;82;20905;-70
2021/11/01 00:22:53;;;;;;;15.80;11.15;;;;;;;9.16;75.25;98771.12;1722975;82;21935;-70
2021/11/01 00:25:21;;;;;;;15.05;10.85;;;;;;;9.12;75.36;98763.09;1722250;82;20950;-70
2021/11/01 00:27:49;;;;;;;14.87;10.43;;;;;;;9.05;75.17;98759.64;1722460;82;23961;-70
2021/11/01 00:30:16;;;;;;;15.40;10.90;;;;;;;8.97;75.21;98757.46;1723403;82;20944;-70
2021/11/01 00:32:43;;;;;;;19.50;11.30;;;;;;;8.90;75.13;98753.04;1724143;82;20912;-70
2021/11/01 00:35:09;;;;;;;17.15;11.55;;;;;;;8.85;75.15;98741.20;1720043;82;21033;-70
2021/11/01 00:37:36;;;;;;;15.10;10.65;;;;;;;8.81;75.15;98739.71;1722609;82;21395;-70
2021/11/01 00:40:04;;;;;;;22.55;14.30;;;;;;;8.73;75.09;98730.55;1724540;82;20903;-70
2021/11/01 00:42:31;;;;;;;17.17;11.57;;;;;;;8.69;75.07;98730.83;1718668;82;20926;-70
2021/11/01 00:44:58;;;;;;;17.48;12.45;;;;;;;8.65;75.08;98730.13;1719537;82;21001;-70
2021/11/01 00:47:25;;;;;;;16.07;12.10;;;;;;;8.60;75.05;98729.58;1720956;82;21027;-70
2021/11/01 00:49:52;;;;;;;19.52;12.88;;;;;;;8.56;74.94;98727.21;1722817;82;21061;-71
2021/11/01 00:52:25;;;;;;;19.05;13.00;;;;;;;8.52;75.00;98722.65;1720142;82;20883;-70
2021/11/01 00:54:48;;;;;;;17.27;12.65;;;;;;;8.48;74.98;98725.02;1722810;82;20903;-70
2021/11/01 00:57:15;;;;;;;17.92;12.10;;;;;;;8.44;74.97;98723.52;1689914;83;20913;-70
2021/11/01 00:59:42;;;;;;;26.13;15.03;;;;;;;8.40;74.93;98724.59;1719917;82;21091;-70
2021/11/01 01:02:11;;;;;;;21.10;12.80;;;;;;;8.40;74.93;98719.39;1718552;82;21489;-70
2021/11/01 01:04:40;;;;;;;20.80;12.03;;;;;;;8.39;74.91;98720.33;1721217;82;21652;-70
2021/11/01 01:07:06;;;;;;;24.12;14.95;;;;;;;8.35;74.79;98718.80;1721747;82;21501;-70
2021/11/01 01:09:34;;;;;;;16.50;12.13;;;;;;;8.30;74.75;98713.37;1721140;82;21006;-70
2021/11/01 01:12:01;;;;;;;;;;;;;;;8.24;74.75;98711.10;1723798;82;20981;-70
2021/11/01 01:14:30;;;;;;;19.30;13.05;;;;;;;8.15;74.69;98708.14;1722401;82;20075;-70
2021/11/01 01:16:58;;;;;;;17.75;12.25;;;;;;;8.05;74.73;98702.14;1717691;82;21128;-70
2021/11/01 01:19:43;;;;;;;21.20;12.88;;;;;;;7.98;74.72;98705.13;1716721;82;20950;-70
2021/11/01 01:24:38;;;;;;;17.67;12.90;;;;;;;7.78;74.70;98708.78;1716453;82;20997;-71
2021/11/01 01:27:05;;;;;;;24.27;15.05;;;;;;;7.68;74.74;98695.44;1718902;82;20986;-71
2021/11/01 01:29:33;;;;;;;21.02;15.35;;;;;;;7.60;74.76;98692.40;1694216;82;33090;-71
2021/11/01 01:32:02;;;;;;;18.37;13.78;;;;;;;7.55;74.86;98691.79;1715507;82;20937;-71
2021/11/01 01:34:29;;;;;;;22.82;15.88;;;;;;;7.49;74.79;98689.52;1721089;82;20962;-71
2021/11/01 01:36:56;;;;;;;21.17;15.07;;;;;;;7.39;74.72;98682.20;1726152;82;21044;-71
2021/11/01 01:39:23;;;;;;;21.13;13.90;;;;;;;7.31;74.74;98681.74;1722965;82;20929;-71
2021/11/01 01:41:49;;;;;;;20.15;14.47;;;;;;;7.24;74.84;98677.77;1719209;82;20903;-71
2021/11/01 01:44:16;;;;;;;25.30;16.27;;;;;;;7.17;74.83;98675.95;1723302;82;20926;-71
2021/11/01 01:46:43;;;;;;;27.73;16.20;;;;;;;7.11;74.81;98666.30;1713323;82;20902;-71
2021/11/01 01:49:10;;;;;;;20.68;15.90;;;;;;;7.04;74.81;98664.95;1702895;83;21988;-71
2021/11/01 01:51:36;;;;;;;24.52;15.18;;;;;;;6.94;74.86;98657.59;1706682;82;22333;-71
2021/11/01 01:54:03;;;;;;;24.80;16.70;;;;;;;6.89;74.91;98654.41;1709387;82;20947;-70
2021/11/01 01:56:30;;;;;;;22.48;16.00;;;;;;;6.84;74.93;98656.39;1705491;82;20930;-71
2021/11/01 01:59:05;;;;;;;21.87;14.93;;;;;;;6.79;74.98;98653.17;1708728;82;21478;-70
2021/11/01 02:01:32;;;;;;;23.73;15.85;;;;;;;6.77;74.97;98649.80;1712822;82;21101;-71
2021/11/01 02:04:00;;;;;;;22.58;15.65;;;;;;;6.72;75.05;98646.59;1708272;82;20859;-71
2021/11/01 02:06:40;;;;;;;;;;;;;;;6.68;74.99;98642.48;1697221;83;20891;-71
2021/11/01 02:09:24;;;;;;;22.52;15.05;;;;;;;6.63;75.04;98639.27;1703928;82;20628;-71
2021/11/01 02:12:02;;;;;;;21.97;15.53;;;;;;;6.61;75.26;98635.89;1706540;82;21517;-71
2021/11/01 02:14:34;;;;;;;;;;;;;;;6.63;75.21;98634.08;1706309;83;21033;-71
2021/11/01 02:17:01;;;;;;;20.57;15.60;;;;;;;6.64;75.40;98624.10;1703769;83;20094;-71
2021/11/01 02:19:33;;;;;;;21.20;15.63;;;;;;;6.68;75.40;98621.73;1703905;83;20925;-71
2021/11/01 02:22:04;;;;;;;27.27;15.25;;;;;;;6.71;75.41;98616.39;1702932;83;20902;-71
2021/11/01 02:24:59;;;;;;;23.67;15.63;;;;;;;6.75;75.45;98605.39;1684313;83;20963;-70
2021/11/01 02:27:30;;;;;;;24.55;15.83;;;;;;;6.75;75.39;98597.18;1701947;83;21904;-70
2021/11/01 02:29:57;;;;;;;24.52;15.40;;;;;;;6.78;75.42;98598.75;1701696;83;21446;-70
2021/11/01 02:32:24;;;;;;;23.18;14.78;;;;;;;6.79;75.42;98587.48;1712670;83;21462;-70
2021/11/01 02:34:51;;;;;;;23.70;15.85;;;;;;;6.81;75.41;98587.78;1707802;83;20847;-71
2021/11/01 02:37:18;;;;;;;25.65;15.93;;;;;;;6.82;75.39;98588.16;1702517;83;21514;-71
2021/11/01 02:39:53;;;;;;;21.42;15.05;;;;;;;6.85;75.53;98582.81;1702500;83;21085;-71
2021/11/01 02:42:23;;;;;;;21.85;15.88;;;;;;;6.88;75.45;98582.66;1700694;82;20893;-71
2021/11/01 02:45:07;;;;;;;22.95;15.43;;;;;;;6.88;75.46;98577.47;1705760;83;20899;-71
2021/11/01 02:47:34;;;;;;;20.57;15.08;;;;;;;6.90;75.45;98574.34;1717033;82;20979;-71
2021/11/01 02:50:04;;;;;;;23.73;14.95;;;;;;;6.90;75.48;98567.86;1726029;82;20946;-71
2021/11/01 02:52:32;;;;;;;21.20;15.40;;;;;;;6.92;75.57;98560.84;1726623;82;21065;-70
2021/11/01 02:55:01;;;;;;;23.98;15.25;;;;;;;6.98;75.55;98555.80;1723421;82;21020;-68
2021/11/01 02:57:27;;;;;;;24.63;15.03;;;;;;;7.02;75.55;98548.22;1725599;82;20855;-68
2021/11/01 02:59:54;;;;;;;27.05;16.35;;;;;;;7.04;75.52;98542.97;1718892;82;20917;-68
2021/11/01 03:02:21;;;;;;;23.00;16.17;;;;;;;7.07;75.56;98545.39;1725230;82;20976;-68
2021/11/01 03:04:48;;;;;;;21.48;15.32;;;;;;;7.07;75.49;98550.59;1694027;83;21852;-68
2021/11/01 03:07:17;;;;;;;23.00;15.40;;;;;;;7.07;75.50;98550.59;1726074;82;20950;-68
2021/11/01 03:09:46;;;;;;;22.45;16.75;;;;;;;7.09;75.54;98542.27;1725740;82;20945;-68
2021/11/01 03:12:17;;;;;;;23.65;16.00;;;;;;;7.07;75.50;98537.61;1721614;82;21025;-68
2021/11/01 03:14:49;;;;;;;21.60;16.00;;;;;;;7.06;75.52;98528.16;1692675;83;21391;-68
2021/11/01 03:17:19;;;;;;;25.85;17.62;;;;;;;7.04;75.53;98527.39;1641905;85;21939;-68
2021/11/01 03:19:54;;;;;;;24.80;16.87;;;;;;;7.01;75.51;98524.49;1724779;82;20946;-68
2021/11/01 03:22:23;;;;;;;25.95;16.80;;;;;;;6.98;75.50;98516.03;1717294;82;20942;-68
2021/11/01 03:24:56;;;;;;;28.62;18.90;;;;;;;6.89;75.47;98516.89;1688009;83;20949;-68
2021/11/01 03:27:24;;;;;;;24.52;18.05;;;;;;;6.87;75.70;98512.69;1718874;82;20954;-68
2021/11/01 03:29:53;;;;;;;24.00;18.23;;;;;;;6.85;75.60;98517.94;1726434;82;21061;-68
2021/11/01 03:32:20;;;;;;;23.70;17.00;;;;;;;6.79;75.56;98510.48;1724524;82;20898;-68
2021/11/01 03:34:46;;;;;;;23.47;18.13;;;;;;;6.69;75.55;98507.53;1725649;82;21469;-68
2021/11/01 03:37:16;;;;;;;29.42;18.85;;;;;;;6.64;75.64;98517.76;1719235;82;21034;-68
2021/11/01 03:39:45;;;;;;;22.17;18.17;;;;;;;6.60;75.81;98505.84;1719861;82;21402;-69
2021/11/01 03:42:12;;;;;;;27.20;18.37;;;;;;;6.61;75.94;98506.21;1688796;83;21076;-68
2021/11/01 03:44:45;;;;;;;30.32;19.57;;;;;;;6.62;76.00;98492.35;1723490;82;21510;-69
2021/11/01 03:47:07;;;;;;;27.45;19.10;;;;;;;6.64;76.00;98491.83;1693882;83;20925;-68
2021/11/01 03:49:39;;;;;;;30.12;18.55;;;;;;;6.64;75.98;98493.12;1722363;82;21503;-68
2021/11/01 03:54:32;;;;;;;26.93;19.45;;;;;;;6.64;75.95;98474.96;1718946;82;21234;-68
2021/11/01 03:56:58;;;;;;;29.30;20.23;;;;;;;6.63;76.05;98478.45;1690033;83;21013;-68
2021/11/01 03:59:27;;;;;;;25.75;17.92;;;;;;;6.63;76.02;98483.64;1726362;82;20986;-68
2021/11/01 04:01:54;;;;;;;27.75;19.23;;;;;;;6.60;76.13;98486.39;1690297;83;21040;-68
2021/11/01 04:04:21;;;;;;;27.90;19.37;;;;;;;6.61;76.17;98486.77;1723703;82;21017;-68
2021/11/01 04:06:47;;;;;;;26.57;19.62;;;;;;;6.59;76.13;98480.84;1690403;83;21074;-68
2021/11/01 04:09:16;;;;;;;29.40;19.97;;;;;;;6.57;76.24;98481.36;1722961;82;21464;-68
2021/11/01 04:11:49;;;;;;;30.35;20.08;;;;;;;6.56;76.20;98470.63;1716577;82;20966;-68
2021/11/01 04:14:17;;;;;;;28.00;20.12;;;;;;;6.56;76.30;98470.16;1719770;82;20976;-68
2021/11/01 04:16:46;;;;;;;27.45;20.48;;;;;;;6.54;76.25;98461.61;1724846;82;21510;-68
2021/11/01 04:21:44;;;;;;;26.77;20.55;;;;;;;6.53;76.35;98457.81;1723537;82;20938;-68
2021/11/01 04:24:11;;;;;;;27.48;20.37;;;;;;;6.49;76.41;98454.05;1718351;82;20936;-68
2021/11/01 04:26:38;;;;;;;27.30;19.73;;;;;;;6.50;76.53;98458.34;1689398;83;20974;-70
2021/11/01 04:29:07;;;;;;;30.48;18.85;;;;;;;6.49;76.49;98460.53;1663182;85;21020;-69
2021/11/01 04:31:41;;;;;;;28.38;20.17;;;;;;;6.49;76.54;98457.94;1718777;82;22861;-70
2021/11/01 04:34:31;;;;;;;29.50;20.02;;;;;;;6.49;76.53;98450.62;1714130;82;20966;-69
2021/11/01 04:36:44;;;;;;;28.90;20.52;;;;;;;6.45;76.46;98452.55;1718067;82;21545;-69
2021/11/01 04:39:25;;;;;;;30.27;20.25;;;;;;;6.41;76.51;98445.85;1695739;83;21020;-70
2021/11/01 04:42:15;;;;;;;28.10;19.90;;;;;;;6.35;76.61;98438.36;1723232;82;21509;-70
2021/11/01 04:55:21;;;;;;;26.73;19.27;;;;;;;6.29;76.90;98415.34;1722813;82;20985;-69
2021/11/01 04:57:48;;;;;;;25.85;18.73;;;;;;;6.28;76.90;98413.68;1718572;82;21021;-70
2021/11/01 05:00:15;;;;;;;29.95;18.85;;;;;;;6.28;76.97;98419.70;1716556;82;21667;-69
2021/11/01 05:02:47;;;;;;;24.90;18.92;;;;;;;6.29;76.99;98407.56;1717384;82;20942;-71
2021/11/01 05:05:10;;;;;;;29.45;19.75;;;;;;;6.29;76.93;98402.38;1721791;82;20882;-71
2021/11/01 05:07:37;;;;;;;29.63;19.67;;;;;;;6.29;77.08;98403.68;1725455;82;20981;-70
2021/11/01 05:10:09;;;;;;;29.30;19.75;;;;;;;6.35;77.24;98399.47;1719522;82;21198;-70
2021/11/01 05:12:39;;;;;;;24.27;18.82;;;;;;;6.41;77.19;98403.50;1686215;83;20941;-71
2021/11/01 05:17:45;;;;;;;25.82;18.05;;;;;;;6.47;77.05;98403.22;1713897;82;21030;-69
2021/11/01 05:20:13;;;;;;;26.15;17.75;;;;;;;6.48;77.13;98395.34;1695782;82;21501;-70
2021/11/01 05:22:51;;;;;;;26.97;17.48;;;;;;;6.55;77.14;98396.31;1719610;82;20996;-70
2021/11/01 05:25:25;;;;;;;27.67;16.07;;;;;;;6.62;77.23;98404.17;1690266;83;21056;-69
2021/11/01 05:27:53;;;;;;;22.58;16.37;;;;;;;6.69;77.18;98408.09;1715258;82;21021;-70
2021/11/01 05:30:28;;;;;;;24.18;16.25;;;;;;;6.75;77.16;98403.91;1721620;82;21025;-70
2021/11/01 05:33:01;;;;;;;24.55;15.72;;;;;;;6.80;77.09;98410.97;1697049;83;20974;-70
2021/11/01 05:35:24;;;;;;;22.22;15.08;;;;;;;6.84;77.02;98409.91;1719291;82;21200;-69
2021/11/01 05:37:51;;;;;;;24.30;16.23;;;;;;;6.86;76.95;98408.08;1716250;82;21511;-70
2021/11/01 05:40:18;;;;;;;19.95;13.95;;;;;;;6.90;77.08;98405.68;1723898;82;21011;-70
2021/11/01 05:42:45;;;;;;;19.27;14.98;;;;;;;7.00;77.01;98401.28;1715734;82;21462;-69
2021/11/01 05:45:13;;;;;;;24.32;15.88;;;;;;;7.05;76.95;98401.88;1719492;82;21002;-70
2021/11/01 05:47:43;;;;;;;21.12;15.25;;;;;;;7.13;76.97;98394.52;1718145;82;21046;-70
2021/11/01 05:50:09;;;;;;;19.60;14.98;;;;;;;7.19;76.84;98401.97;1706293;82;20926;-69
2021/11/01 05:52:41;;;;;;;21.17;15.13;;;;;;;7.23;76.78;98403.95;1722073;82;21013;-69
2021/11/01 05:56:02;;;;;;;22.22;15.48;;;;;;;7.23;76.65;98406.09;1718594;82;20909;-70
2021/11/01 06:00:41;;;;;;;23.37;15.47;;;;;;;7.19;76.58;98407.16;1719693;82;21009;-70
2021/11/01 06:13:29;;;;;;;17.92;13.25;;;;;;;7.45;76.45;98403.59;1722937;82;21057;-70
2021/11/01 06:15:59;;;;;;;21.00;15.70;;;;;;;7.50;76.34;98405.47;1721439;82;21006;-74
2021/11/01 06:18:35;;;;;;;16.75;13.18;;;;;;;7.58;76.27;98396.80;1721821;82;21501;-71
2021/11/01 06:21:08;;;;;;;19.50;13.50;;;;;;;7.69;76.14;98395.73;1716243;82;21001;-70
2021/11/01 06:23:36;;;;;;;20.75;16.27;;;;;;;7.77;76.10;98398.73;1717224;82;21029;-71
2021/11/01 06:26:03;;;;;;;20.50;16.77;;;;;;;7.83;75.94;98398.38;1686999;83;21085;-70
2021/11/01 06:28:30;;;;;;;22.20;17.73;;;;;;;7.90;75.87;98394.13;1717968;82;20930;-70
2021/11/01 06:31:07;;;;;;;28.00;20.10;;;;;;;7.97;75.86;98394.16;1718008;82;21545;-70
2021/11/01 06:33:48;;;;;;;24.82;21.05;;;;;;;8.02;75.69;98384.34;1718588;82;21672;-71
2021/11/01 06:44:04;;;;;;;26.67;21.53;;;;;;;8.00;75.52;98376.61;1687013;83;20949;-71
2021/11/01 06:52:21;;;;;;;26.15;19.48;;;;;;;7.92;75.56;98380.58;1722094;82;21103;-70
2021/11/01 07:19:17;;;;;;;33.83;22.10;;;;;;;7.97;75.47;98373.36;1694954;83;21043;-69
2021/11/01 07:21:45;;;;;;;24.98;18.62;;;;;;;8.00;75.35;98369.28;1641903;86;21063;-69
2021/11/01 08:22:15;;;;;;;19.10;14.55;;;;;;;9.04;74.55;98361.70;1717686;82;21708;-71
2021/11/01 08:43:27;;;;;;;19.27;15.50;;;;;;;9.31;74.06;98367.42;1718188;82;20942;-70
2021/11/01 08:46:01;;;;;;;19.87;15.35;;;;;;;9.34;74.12;98360.71;1722279;82;21666;-70
2021/11/01 09:07:53;;;;;;;17.73;13.58;;;;;;;9.70;73.54;98328.00;1707918;82;21564;-72
2021/11/01 09:10:27;;;;;;;22.15;14.43;;;;;;;9.73;73.64;98338.22;1700947;83;20926;-71
2021/11/01 09:26:14;;;;;;;25.45;17.67;;;;;;;10.09;73.54;98337.08;1673697;84;20963;-70
2021/11/01 09:28:52;;;;;;;95.87;57.95;;;;;;;10.15;73.44;98340.21;1655943;84;20960;-71
2021/11/01 09:37:24;;;;;;;26.70;19.02;;;;;;;10.31;73.29;98333.05;1677832;84;21426;-70
2021/11/01 09:42:10;;;;;;;29.55;21.57;;;;;;;10.43;73.22;98332.20;1674933;84;21074;-71
2021/11/01 09:44:37;;;;;;;20.35;15.43;;;;;;;10.48;73.21;98340.55;1674235;84;20986;-71
2021/11/01 09:47:04;;;;;;;18.40;14.10;;;;;;;10.55;73.21;98334.91;1674694;84;21286;-70
2021/11/01 09:49:34;;;;;;;18.45;13.55;;;;;;;10.63;73.21;98339.13;1693843;82;20991;-72
2021/11/01 09:52:06;;;;;;;20.85;14.23;;;;;;;10.69;73.04;98340.00;1711691;82;21457;-71
2021/11/01 09:54:31;;;;;;;16.82;14.03;;;;;;;10.75;73.02;98347.39;1709198;82;20970;-69
2021/11/01 09:57:08;;;;;;;18.07;13.72;;;;;;;10.80;72.99;98347.91;1711497;82;20966;-74
2021/11/01 09:59:40;;;;;;;15.10;13.25;;;;;;;10.87;72.86;98345.25;1711407;82;21019;-69
2021/11/01 10:02:11;;;;;;;20.48;13.32;;;;;;;10.91;72.94;98338.85;1709972;82;20974;-69
2021/11/01 10:04:45;;;;;;;22.30;14.65;;;;;;;10.98;72.80;98340.10;1713160;82;20962;-70
2021/11/01 10:07:34;;;;;;;18.90;14.60;;;;;;;11.01;72.80;98339.50;1711428;82;20950;-69
2021/11/01 10:10:11;;;;;;;16.37;13.20;;;;;;;11.06;72.84;98338.70;1715820;82;21517;-69
2021/11/01 10:12:40;;;;;;;16.70;13.68;;;;;;;11.12;72.64;98333.07;1712742;82;21067;-69
2021/11/01 10:18:06;;;;;;;15.08;13.03;;;;;;;11.15;72.22;98343.30;1711807;82;21073;-69
2021/11/01 10:20:38;;;;;;;17.57;13.30;;;;;;;11.18;72.46;98339.16;1710552;82;20947;-69
2021/11/01 10:23:23;;;;;;;19.40;13.28;;;;;;;11.21;72.51;98332.41;1710334;82;21009;-69
2021/11/01 10:25:54;;;;;;;16.32;13.48;;;;;;;11.27;72.47;98339.79;1711341;82;21800;-69
2021/11/01 10:28:31;;;;;;;17.27;14.65;;;;;;;11.36;72.49;98346.95;1689180;82;20958;-70
2021/11/01 10:31:20;;;;;;;16.50;12.85;;;;;;;11.39;72.32;98341.50;1710856;82;20954;-70
2021/11/01 10:33:51;;;;;;;16.97;13.83;;;;;;;11.41;72.17;98340.93;1710900;82;21493;-69
2021/11/01 10:36:31;;;;;;;17.48;14.10;;;;;;;11.40;72.00;98343.19;1692880;82;20993;-70
2021/11/01 10:39:04;;;;;;;18.57;14.20;;;;;;;11.45;72.14;98345.93;1686335;83;21894;-70
2021/11/01 10:42:01;;;;;;;16.42;12.85;;;;;;;11.49;72.22;98340.86;1687053;83;20913;-69
2021/11/01 11:10:51;;;;;;;16.57;12.28;;;;;;;11.71;71.77;98363.17;1718493;82;20962;-70
2021/11/01 11:12:29;;;;;;;20.57;13.35;;;;;;;11.85;71.57;98348.64;1693045;83;20960;-69
2021/11/01 11:14:51;;;;;;;18.40;13.45;;;;;;;11.86;71.33;98350.29;1688893;83;21001;-68
2021/11/01 11:17:33;;;;;;;23.60;14.75;;;;;;;11.89;71.40;98348.41;1691908;83;20968;-70
2021/11/01 11:20:25;;;;;;;18.25;13.48;;;;;;;11.94;71.55;98347.59;1694801;83;21117;-69
2021/11/01 11:25:43;;;;;;;17.15;13.90;;;;;;;12.03;71.42;98337.73;1666994;85;20985;-69
2021/11/01 11:47:42;;;;;;;15.78;13.55;;;;;;;12.23;70.91;98342.29;1716913;82;21136;-70
2021/11/01 11:50:22;;;;;;;16.17;12.53;;;;;;;12.27;70.94;98337.20;1715970;82;21112;-70
2021/11/01 11:52:49;;;;;;;17.55;14.45;;;;;;;12.29;70.83;98345.77;1714698;82;21638;-70
2021/11/01 11:55:25;;;;;;;18.75;14.87;;;;;;;12.30;70.84;98348.73;1716467;82;21498;-69
2021/11/01 11:58:01;;;;;;;16.97;13.60;;;;;;;12.33;70.80;98346.84;1724052;82;20950;-69
2021/11/01 12:00:32;;;;;;;19.67;14.00;;;;;;;12.33;70.76;98344.23;1718511;82;21062;-69
2021/11/01 12:03:16;;;;;;;18.57;13.88;;;;;;;12.33;70.73;98348.16;1723666;82;22486;-69
2021/11/01 12:05:51;;;;;;;21.40;13.95;;;;;;;12.35;70.71;98347.54;1714005;82;21089;-70
2021/11/01 12:18:58;;;;;;;15.90;13.10;;;;;;;12.35;70.56;98354.08;1701857;82;21012;-69
2021/11/01 12:21:25;;;;;;;17.12;13.08;;;;;;;12.37;70.61;98362.66;1719628;82;21013;-69
2021/11/01 12:23:52;;;;;;;15.32;13.30;;;;;;;12.37;70.61;98362.66;1728461;82;20972;-68
2021/11/01 12:26:22;;;;;;;19.57;13.80;;;;;;;12.37;70.42;98360.05;1717327;82;21094;-69
2021/11/01 12:28:59;;;;;;;16.30;13.30;;;;;;;12.37;70.28;98361.35;1706100;82;20951;-68
2021/11/01 12:31:28;;;;;;;17.98;13.18;;;;;;;12.37;70.28;98361.35;1718355;82;20902;-68
2021/11/01 12:34:40;;;;;;;16.42;13.18;;;;;;;12.37;70.38;98361.35;1718796;82;20934;-68
2021/11/01 12:58:56;;;;;;;16.87;12.63;;;;;;;12.37;70.11;98353.50;1703880;83;20986;-69
2021/11/01 13:01:25;;;;;;;18.65;13.48;;;;;;;12.34;70.12;98353.73;1705181;83;20929;-70
2021/11/01 13:04:20;;;;;;;17.30;12.82;;;;;;;12.33;69.95;98357.31;1708048;82;20979;-70
2021/11/01 13:09:34;;;;;;;18.98;13.28;;;;;;;12.31;70.08;98370.02;1706190;82;20947;-70
2021/11/01 13:19:53;;;;;;;18.90;13.03;;;;;;;12.23;69.93;98384.16;1704052;82;21897;-70
2021/11/01 13:22:28;;;;;;;;;;;;;;;12.20;69.88;98392.24;1707584;82;21546;-69
2021/11/01 13:25:06;;;;;;;20.92;13.00;;;;;;;12.19;69.86;98390.59;1706601;83;20194;-69
2021/11/01 13:27:51;;;;;;;19.50;12.78;;;;;;;12.16;69.94;98386.89;1707097;82;21081;-70
2021/11/01 13:38:44;;;;;;;22.05;13.40;;;;;;;12.06;70.02;98404.22;1706076;83;20969;-70
2021/11/01 13:41:30;;;;;;;18.95;13.98;;;;;;;12.05;70.06;98409.10;1704747;82;21501;-70
2021/11/01 13:44:12;;;;;;;17.73;13.18;;;;;;;12.06;70.04;98409.45;1702636;82;20899;-70
2021/11/01 13:46:48;;;;;;;18.37;13.98;;;;;;;12.04;69.96;98405.66;1695123;82;21172;-70
2021/11/01 13:49:17;;;;;;;20.60;12.75;;;;;;;12.01;69.93;98405.03;1707877;82;21469;-70
2021/11/01 13:51:46;;;;;;;15.83;13.48;;;;;;;11.98;69.89;98407.87;1720992;82;20954;-70
2021/11/01 13:54:23;;;;;;;17.27;12.18;;;;;;;11.96;69.93;98407.14;1689831;83;21612;-70
2021/11/01 13:56:44;;;;;;;15.45;13.18;;;;;;;11.93;69.88;98407.37;1719641;82;20981;-70
2021/11/01 14:26:49;;;;;;;17.17;13.83;;;;;;;11.50;70.04;98420.93;1725162;82;20948;-70
2021/11/01 14:29:13;;;;;;;19.32;13.85;;;;;;;11.25;70.01;98414.83;1717115;82;20955;-70
2021/11/01 14:31:47;;;;;;;21.65;14.35;;;;;;;11.17;70.02;98422.38;1717327;82;21390;-71
2021/11/01 14:34:18;;;;;;;20.60;13.93;;;;;;;11.10;70.09;98424.59;1721623;82;20968;-70
2021/11/01 14:55:52;;;;;;;16.93;13.13;;;;;;;10.87;70.17;98441.87;1718240;82;20934;-70
2021/11/01 14:56:37;;;;;;;16.87;13.35;;;;;;;10.38;70.34;98458.22;1705723;82;20963;-70
2021/11/01 15:01:28;;;;;;;16.07;13.20;;;;;;;10.13;70.48;98454.23;1686110;84;21043;-70
2021/11/01 15:14:41;;;;;;;20.57;14.90;;;;;;;9.60;70.82;98464.09;1704772;82;21479;-71
2021/11/01 15:17:23;;;;;;;24.32;15.75;;;;;;;9.47;70.81;98458.00;1682549;84;20963;-70
2021/11/01 15:28:04;;;;;;;37.65;22.62;;;;;;;9.08;71.23;98465.22;1699455;83;21505;-70
2021/11/01 15:38:31;;;;;;;41.45;26.05;;;;;;;8.85;71.66;98469.19;1706553;82;21469;-71
2021/11/01 15:41:33;;;;;;;35.90;26.37;;;;;;;8.83;71.79;98472.38;1710061;82;21873;-70
2021/11/01 16:15:22;;;;;;;37.70;26.62;;;;;;;8.85;71.91;98467.89;1706265;82;21003;-71
2021/11/01 16:19:12;;;;;;;40.17;26.85;;;;;;;8.67;72.77;98494.09;1710783;82;20978;-70
2021/11/01 16:21:39;;;;;;;42.97;29.07;;;;;;;8.67;72.91;98494.09;1704778;83;20986;-70
2021/11/01 16:24:06;;;;;;;45.23;31.10;;;;;;;8.68;72.99;98495.78;1705814;83;20938;-71
2021/11/01 16:26:35;;;;;;;43.33;28.27;;;;;;;8.69;73.04;98487.04;1706571;83;21034;-70
2021/11/01 16:29:10;;;;;;;42.80;25.70;;;;;;;8.72;73.09;98488.62;1657295;85;20975;-70
2021/11/01 16:34:14;;;;;;;36.45;24.47;;;;;;;8.74;73.24;98492.81;1707233;83;21486;-71
2021/11/01 16:39:40;;;;;;;36.93;24.23;;;;;;;8.71;73.29;98495.60;1705740;82;22047;-71
2021/11/01 16:41:59;;;;;;;;;;;;;;;8.66;73.30;98497.63;1708554;83;20907;-71
2021/11/01 16:44:31;;;;;;;34.35;24.05;;;;;;;8.61;73.39;98496.23;1704198;83;20476;-71
2021/11/01 16:46:56;;;;;;;34.38;24.25;;;;;;;8.55;73.47;98492.22;1704629;82;21894;-70
2021/11/01 16:49:25;;;;;;;35.00;22.70;;;;;;;8.49;73.52;98489.98;1709303;83;20988;-70
2021/11/01 16:51:52;;;;;;;32.55;23.32;;;;;;;8.45;73.61;98481.97;1725803;82;21035;-71
2021/11/01 16:54:22;;;;;;;;;;;;;;;8.43;73.68;98489.02;1710004;82;20968;-70
2021/11/01 16:56:57;;;;;;;36.93;24.57;;;;;;;8.39;73.75;98482.33;1719251;82;20454;-70
2021/11/01 17:02:07;;;;;;;40.48;26.30;;;;;;;8.25;73.81;98481.33;1722402;82;20970;-70
2021/11/01 17:04:27;;;;;;;38.40;23.12;;;;;;;8.17;73.82;98488.73;1723172;82;21193;-70
2021/11/01 17:07:10;;;;;;;34.70;22.98;;;;;;;8.12;73.93;98493.34;1717366;82;21675;-71
2021/11/01 17:23:46;;;;;;;32.28;21.00;;;;;;;7.93;74.31;98496.63;1722363;82;20941;-70
2021/11/01 17:25:59;;;;;;;28.73;21.07;;;;;;;7.91;74.45;98493.27;1719524;82;20977;-70
2021/11/01 17:28:39;;;;;;;42.35;26.80;;;;;;;7.87;74.45;98488.72;1700392;83;21037;-71
2021/11/01 17:31:12;;;;;;;40.52;24.35;;;;;;;7.81;74.49;98489.90;1721388;82;21030;-70
2021/11/01 18:24:21;;;;;;;48.47;27.97;;;;;;;7.70;74.75;98496.15;1699209;82;21010;-70
2021/11/01 18:51:28;;;;;;;43.00;27.58;;;;;;;9.36;76.07;98452.63;1709461;82;20991;-71
2021/11/01 18:54:10;;;;;;;54.90;39.80;;;;;;;9.44;76.07;98449.08;1703132;83;21393;-71
2021/11/01 18:56:35;;;;;;;38.25;28.70;;;;;;;9.52;76.04;98455.95;1704708;82;21002;-71
2021/11/01 18:59:07;;;;;;;37.10;25.17;;;;;;;9.58;76.01;98458.16;1662467;85;21515;-71
2021/11/01 19:01:38;;;;;;;38.58;25.68;;;;;;;9.60;76.01;98461.48;1706607;82;20914;-71
2021/11/01 19:04:22;;;;;;;36.25;25.02;;;;;;;9.63;76.00;98458.72;1690263;83;20952;-71
2021/11/01 19:06:59;;;;;;;37.10;25.07;;;;;;;9.63;76.02;98453.50;1705877;82;21009;-71
2021/11/01 19:09:39;;;;;;;32.73;25.10;;;;;;;9.66;76.04;98462.03;1704011;82;20977;-71
2021/11/01 20:04:25;;;;;;;33.78;23.70;;;;;;;9.69;76.17;98469.66;1721915;82;21552;-70
2021/11/01 20:06:58;;;;;;;36.90;24.50;;;;;;;9.67;76.21;98474.16;1717815;82;20996;-70
2021/11/01 20:09:37;;;;;;;32.93;23.45;;;;;;;9.69;76.30;98464.45;1720702;82;20975;-70
2021/11/01 21:24:29;;;;;;;30.85;22.42;;;;;;;9.79;76.36;98465.54;1719733;82;20990;-71
2021/11/01 21:27:00;;;;;;;30.30;23.87;;;;;;;9.67;76.42;98487.19;1704612;83;20945;-72
2021/11/01 21:29:31;;;;;;;33.95;24.85;;;;;;;9.63;76.46;98489.98;1703165;82;20985;-71
2021/11/01 21:31:59;;;;;;;35.48;23.67;;;;;;;9.67;76.59;98493.70;1712697;82;20951;-71
2021/11/01 21:34:34;;;;;;;32.20;24.45;;;;;;;9.70;76.69;98479.17;1684583;84;20889;-71
2021/11/01 21:37:02;;;;;;;32.98;25.37;;;;;;;9.76;76.70;98478.78;1652699;85;21923;-71
2021/11/01 21:39:29;;;;;;;36.23;24.70;;;;;;;9.78;76.49;98483.44;1706730;82;21569;-72
2021/11/01 21:41:56;;;;;;;34.10;25.37;;;;;;;9.79;76.53;98480.71;1684284;84;21175;-72
2021/11/01 21:44:23;;;;;;;33.23;25.02;;;;;;;9.79;76.59;98478.58;1710074;82;20910;-72
2021/11/01 21:46:49;;;;;;;35.60;26.17;;;;;;;9.85;76.81;98478.18;1699988;83;20982;-71
2021/11/01 21:49:17;;;;;;;34.03;26.37;;;;;;;9.90;76.77;98476.12;1708634;82;21037;-72
2021/11/01 21:51:44;;;;;;;32.42;24.87;;;;;;;9.95;76.73;98476.66;1714931;82;20973;-72
2021/11/01 21:57:06;;;;;;;34.73;24.75;;;;;;;9.97;76.61;98485.23;1722149;82;20985;-71
2021/11/01 22:20:56;;;;;;;35.03;23.50;;;;;;;9.63;76.56;98465.67;1720641;82;20957;-71
2021/11/01 22:33:53;;;;;;;39.38;27.42;;;;;;;9.48;76.86;98458.36;1680327;83;21005;-71
2021/11/01 22:46:56;;;;;;;39.13;26.37;;;;;;;9.39;76.92;98449.83;1684174;83;20949;-71
2021/11/01 22:57:27;;;;;;;33.55;23.05;;;;;;;9.32;76.93;98428.99;1689848;84;20950;-71